Weather at Don Mueang International Airport

Public forecast

Using degrees Celsius for public forecast. Weather courtesy of forecast.io.

Current aviation weather report (METAR) for Don Mueang International Airport

Retrieved 2021/03/06 15:30 UTC (0 seconds ago):

VTBD 061530Z 19007KT 9999 FEW035 28/25 Q1012 NOSIG

Aviation forecast (TAF) for Don Mueang International Airport

Retrieved 2021/03/06 12:37 UTC (3 hours ago):

TAF VTBD 061100Z 0612/0718 19008KT 9999 FEW020